Terminal Aerodrome Forecast
Issued by NWS Sioux Falls, SD

Home | Current Version | Previous Version | Graphics & Text | Print | Product List | Glossary On
Versions: 1 2 3 4 5 6 7 8 9 10 11 12 13 14 15 16 17
000
FTUS43 KFSD 182320
TAFSUX
TAF
KSUX 182320Z 1900/1924 32006KT P6SM FEW080
     FM190400 VRB03KT P6SM SKC
     FM191000 00000KT 2SM BR SKC
     FM191400 VRB04KT P6SM SKC
     FM191800 15007KT P6SM SKC=

USA.gov is the U.S. government's official web portal to all federal, state and local government web resources and services.